createdAt,value
2018-08-12T00:02:56.968Z,91.23
2018-08-12T00:06:01.514Z,91.67
2018-08-12T00:09:09.180Z,91.48
2018-08-12T00:12:13.609Z,91.51
2018-08-12T00:15:21.043Z,91.12
2018-08-12T00:18:25.288Z,91.27
2018-08-12T00:21:29.603Z,91.09
2018-08-12T00:24:34.205Z,91.33
2018-08-12T00:27:38.625Z,91.10
2018-08-12T00:30:42.938Z,91.64
2018-08-12T00:33:47.416Z,91.72
2018-08-12T00:36:51.739Z,91.87
2018-08-12T00:39:56.001Z,92.11
2018-08-12T00:43:00.286Z,92.42
2018-08-12T00:46:04.611Z,92.20
2018-08-12T00:49:08.920Z,92.26
2018-08-12T00:52:13.242Z,92.11
2018-08-12T00:55:18.825Z,92.34
2018-08-12T00:58:23.178Z,92.14
2018-08-12T01:01:27.794Z,92.53
2018-08-12T01:04:32.314Z,92.06
2018-08-12T01:07:36.904Z,92.43
2018-08-12T01:10:41.488Z,92.93
2018-08-12T01:13:46.074Z,93.15
2018-08-12T01:16:50.393Z,93.26
2018-08-12T01:19:54.687Z,93.30
2018-08-12T01:22:59.330Z,92.98
2018-08-12T01:26:05.705Z,93.28
2018-08-12T01:29:10.075Z,93.89
2018-08-12T01:32:14.429Z,93.84
2018-08-12T01:35:19.183Z,93.39
2018-08-12T01:38:23.525Z,94.00
2018-08-12T01:41:27.845Z,94.24
2018-08-12T01:44:32.316Z,94.43
2018-08-12T01:47:36.627Z,94.69
2018-08-12T01:50:41.098Z,93.99
2018-08-12T01:53:45.543Z,93.76
2018-08-12T01:56:50.049Z,93.53
2018-08-12T01:59:54.475Z,93.77
2018-08-12T02:02:58.785Z,93.82
2018-08-12T02:06:03.088Z,94.53
2018-08-12T02:09:09.327Z,94.33
2018-08-12T02:12:13.621Z,94.42
2018-08-12T02:15:17.921Z,94.30
2018-08-12T02:18:22.265Z,94.46
2018-08-12T02:21:26.538Z,95.03
2018-08-12T02:24:30.823Z,96.19
2018-08-12T02:27:35.094Z,95.56
2018-08-12T02:30:39.377Z,97.06
2018-08-12T02:33:43.663Z,95.58
2018-08-12T02:36:47.928Z,95.92
2018-08-12T02:39:52.218Z,95.55
2018-08-12T02:42:56.516Z,96.97
2018-08-12T02:46:00.802Z,96.25
2018-08-12T02:49:05.319Z,95.84
2018-08-12T02:52:09.625Z,94.92
2018-08-12T02:55:13.932Z,95.39
2018-08-12T02:58:18.249Z,96.92
2018-08-12T03:01:22.556Z,97.00
2018-08-12T03:04:27.159Z,96.59
2018-08-12T03:07:31.518Z,96.11
2018-08-12T03:10:35.994Z,96.26
2018-08-12T03:13:40.351Z,96.51
2018-08-12T03:16:44.905Z,95.69
2018-08-12T03:19:49.209Z,95.33
2018-08-12T03:22:53.513Z,94.92
2018-08-12T03:25:57.852Z,95.00
2018-08-12T03:29:02.210Z,95.15
2018-08-12T03:32:06.481Z,95.79
2018-08-12T03:35:11.085Z,95.48
2018-08-12T03:38:15.482Z,95.39
2018-08-12T03:41:19.957Z,95.43
2018-08-12T03:44:24.534Z,95.63
2018-08-12T03:47:29.029Z,95.36
2018-08-12T03:50:33.325Z,95.58
2018-08-12T03:53:38.047Z,95.06
2018-08-12T03:56:42.425Z,95.15
2018-08-12T03:59:46.716Z,95.48
2018-08-12T04:02:51.006Z,95.63
2018-08-12T04:05:55.305Z,95.85
2018-08-12T04:08:59.995Z,95.51
2018-08-12T04:12:04.545Z,95.38
2018-08-12T04:15:10.849Z,95.71
2018-08-12T04:18:15.157Z,95.43
2018-08-12T04:21:20.003Z,95.30
2018-08-12T04:24:24.459Z,95.80
2018-08-12T04:27:28.748Z,95.35
2018-08-12T04:30:33.427Z,95.65
2018-08-12T04:33:37.873Z,95.27
2018-08-12T04:36:42.389Z,95.75
2018-08-12T04:39:48.181Z,95.20
2018-08-12T04:42:52.504Z,95.75
2018-08-12T04:45:57.444Z,94.96
2018-08-12T04:49:02.057Z,93.83
2018-08-12T04:52:06.768Z,93.89
2018-08-12T04:55:11.333Z,93.76
2018-08-12T04:58:16.357Z,93.83
2018-08-12T05:01:20.814Z,93.66
2018-08-12T05:04:25.551Z,94.19
2018-08-12T05:07:29.863Z,93.27
2018-08-12T05:10:34.460Z,93.41
2018-08-12T05:13:38.948Z,92.93
2018-08-12T05:16:43.305Z,92.20
2018-08-12T05:19:47.609Z,91.66
2018-08-12T05:22:51.931Z,91.02
2018-08-12T05:25:56.242Z,91.33
2018-08-12T05:29:00.585Z,91.42
2018-08-12T05:32:05.880Z,91.40
2018-08-12T05:35:13.026Z,92.14
2018-08-12T05:38:17.333Z,91.79
2018-08-12T05:41:21.638Z,91.53
2018-08-12T05:44:25.929Z,91.47
2018-08-12T05:47:34.023Z,91.03
2018-08-12T05:50:38.970Z,90.57
2018-08-12T05:53:43.946Z,89.88
2018-08-12T05:56:56.208Z,90.19
2018-08-12T06:00:01.450Z,87.58
2018-08-12T06:03:09.405Z,82.63
2018-08-12T06:06:13.835Z,79.18
2018-08-12T06:09:20.327Z,72.61
2018-08-12T06:12:24.799Z,68.68
2018-08-12T06:15:30.298Z,62.10
2018-08-12T06:18:38.764Z,56.60
2018-08-12T06:21:43.305Z,56.53
2018-08-12T06:24:48.078Z,56.03
2018-08-12T06:27:52.520Z,58.28
2018-08-12T06:30:56.953Z,56.24
2018-08-12T06:34:01.233Z,55.89
2018-08-12T06:37:06.049Z,57.51
2018-08-12T06:40:13.026Z,57.83
2018-08-12T06:43:17.489Z,61.75
2018-08-12T06:46:22.469Z,61.20
2018-08-12T06:49:26.777Z,60.13
2018-08-12T06:52:31.217Z,61.39
2018-08-12T06:55:36.059Z,61.33
2018-08-12T06:58:40.523Z,59.59
2018-08-12T07:01:45.202Z,58.72
2018-08-12T07:04:50.053Z,60.14
2018-08-12T07:07:54.409Z,63.56
2018-08-12T07:10:59.754Z,63.13
2018-08-12T07:14:06.598Z,61.24
2018-08-12T07:17:11.209Z,64.16
2018-08-12T07:20:16.060Z,61.24
2018-08-12T07:23:20.796Z,60.75
2018-08-12T07:26:25.317Z,61.16
2018-08-12T07:29:30.247Z,62.91
2018-08-12T07:35:51.598Z,63.72
2018-08-12T07:38:57.057Z,64.19
2018-08-12T07:42:01.358Z,60.02
2018-08-12T07:45:08.254Z,61.42
2018-08-12T07:48:12.624Z,62.38
2018-08-12T07:51:17.006Z,62.24
2018-08-12T07:54:21.384Z,62.54
2018-08-12T07:57:25.719Z,63.63
2018-08-12T08:00:30.020Z,63.21
2018-08-12T08:03:34.349Z,62.29
2018-08-12T08:06:38.911Z,62.21
2018-08-12T08:09:43.217Z,60.37
2018-08-12T08:12:47.650Z,58.71
2018-08-12T08:15:53.045Z,59.51
2018-08-12T08:18:57.622Z,55.86
2018-08-12T08:22:02.210Z,55.72
2018-08-12T08:25:08.225Z,57.74
2018-08-12T08:28:12.590Z,57.05
2018-08-12T08:31:17.230Z,56.61
2018-08-12T08:34:22.135Z,54.40
2018-08-12T08:37:26.608Z,54.71
2018-08-12T08:40:32.531Z,55.69
2018-08-12T08:43:38.118Z,54.41
2018-08-12T08:46:42.660Z,52.94
2018-08-12T08:49:47.212Z,52.06
2018-08-12T08:52:52.165Z,53.45
2018-08-12T08:55:56.748Z,54.05
2018-08-12T08:59:01.005Z,52.46
2018-08-12T09:02:05.510Z,51.15
2018-08-12T09:05:11.988Z,50.84
2018-08-12T09:08:16.419Z,50.36
2018-08-12T09:11:20.676Z,50.40
2018-08-12T09:14:25.300Z,51.07
2018-08-12T09:17:30.051Z,52.16
2018-08-12T09:20:34.807Z,50.57
2018-08-12T09:23:39.295Z,51.46
2018-08-12T09:26:43.717Z,50.36
2018-08-12T09:29:49.214Z,49.66
2018-08-12T09:32:53.553Z,49.20
2018-08-12T09:35:58.000Z,49.93
2018-08-12T09:39:02.509Z,51.01
2018-08-12T09:42:07.447Z,51.95
2018-08-12T09:45:14.283Z,50.27
2018-08-12T09:48:18.697Z,50.97
2018-08-12T09:51:23.361Z,50.93
2018-08-12T09:54:27.943Z,51.80
2018-08-12T09:57:33.898Z,51.85
2018-08-12T10:00:40.606Z,50.24
2018-08-12T10:03:44.953Z,50.75
2018-08-12T10:06:49.791Z,52.14
2018-08-12T10:09:54.204Z,53.14
2018-08-12T10:12:58.586Z,53.40
2018-08-12T10:16:03.509Z,52.98
2018-08-12T10:19:08.175Z,53.58
2018-08-12T10:22:12.793Z,53.83
2018-08-12T10:25:17.155Z,53.04
2018-08-12T10:28:21.728Z,53.57
2018-08-12T10:31:27.116Z,53.03
2018-08-12T10:34:31.794Z,52.67
2018-08-12T10:37:36.240Z,50.95
2018-08-12T10:40:40.768Z,52.19
2018-08-12T10:43:45.493Z,53.57
2018-08-12T10:46:50.113Z,52.01
2018-08-12T10:49:55.102Z,51.07
2018-08-12T10:52:59.603Z,50.09
2018-08-12T10:56:04.345Z,49.96
2018-08-12T10:59:08.703Z,50.17
2018-08-12T11:02:14.561Z,49.93
2018-08-12T11:05:19.203Z,50.14
2018-08-12T11:08:23.750Z,49.85
2018-08-12T11:11:28.373Z,51.01
2018-08-12T11:14:33.863Z,48.05
2018-08-12T11:17:38.625Z,52.20
2018-08-12T11:20:43.113Z,49.64
2018-08-12T11:23:48.057Z,48.76
2018-08-12T11:26:52.587Z,49.03
2018-08-12T11:29:57.008Z,51.30
2018-08-12T11:33:01.587Z,48.60
2018-08-12T11:36:06.291Z,49.90
2018-08-12T11:39:12.257Z,48.33
2018-08-12T11:42:16.781Z,47.71
2018-08-12T11:45:21.353Z,49.50
2018-08-12T11:48:25.926Z,47.77
2018-08-12T11:51:31.084Z,46.67
2018-08-12T11:54:35.539Z,48.02
2018-08-12T11:57:40.415Z,45.57
2018-08-12T12:00:44.897Z,45.66
2018-08-12T12:03:49.796Z,46.51
2018-08-12T12:06:54.572Z,45.20
2018-08-12T12:09:59.067Z,45.13
2018-08-12T12:13:04.475Z,46.07
2018-08-12T12:16:08.901Z,44.91
2018-08-12T12:19:13.521Z,45.56
2018-08-12T12:22:17.888Z,43.59
2018-08-12T12:25:22.502Z,44.30
2018-08-12T12:28:26.945Z,44.51
2018-08-12T12:31:31.850Z,45.19
2018-08-12T12:34:36.155Z,45.42
2018-08-12T12:37:41.561Z,45.08
2018-08-12T12:40:45.989Z,43.48
2018-08-12T12:43:50.848Z,44.25
2018-08-12T12:46:56.246Z,44.63
2018-08-12T12:50:01.189Z,46.02
2018-08-12T12:53:05.670Z,45.87
2018-08-12T12:56:10.082Z,44.92
2018-08-12T12:59:14.685Z,45.39
2018-08-12T13:02:19.584Z,44.61
2018-08-12T13:05:24.443Z,45.28
2018-08-12T13:08:28.870Z,43.66
2018-08-12T13:11:33.402Z,44.77
2018-08-12T13:14:37.822Z,45.56
2018-08-12T13:17:42.382Z,45.23
2018-08-12T13:20:47.910Z,44.38
2018-08-12T13:23:52.336Z,44.95
2018-08-12T13:26:56.861Z,45.14
2018-08-12T13:30:01.294Z,44.98
2018-08-12T13:33:05.848Z,43.72
2018-08-12T13:36:10.343Z,44.37
2018-08-12T13:39:16.057Z,44.26
2018-08-12T13:42:20.435Z,44.17
2018-08-12T13:45:24.811Z,42.52
2018-08-12T13:48:30.119Z,41.84
2018-08-12T13:51:34.487Z,42.43
2018-08-12T13:54:38.866Z,42.70
2018-08-12T13:57:43.392Z,42.67
2018-08-12T14:00:47.813Z,43.14
2018-08-12T14:03:52.117Z,43.02
2018-08-12T14:06:57.435Z,42.27
2018-08-12T14:10:01.765Z,42.00
2018-08-12T14:13:06.304Z,42.43
2018-08-12T14:16:10.763Z,43.42
2018-08-12T14:19:15.361Z,44.26
2018-08-12T14:22:19.695Z,45.30
2018-08-12T14:25:24.057Z,43.49
2018-08-12T14:28:28.980Z,44.20
2018-08-12T14:31:33.400Z,45.00
2018-08-12T14:34:38.078Z,42.84
2018-08-12T14:37:42.541Z,45.14
2018-08-12T14:40:46.866Z,44.35
2018-08-12T14:43:51.285Z,43.13
2018-08-12T14:46:56.185Z,43.70
2018-08-12T14:50:00.548Z,44.08
2018-08-12T14:53:05.174Z,42.95
2018-08-12T14:56:09.571Z,42.48
2018-08-12T14:59:14.929Z,42.98
2018-08-12T15:02:19.377Z,44.76
2018-08-12T15:05:24.113Z,43.81
2018-08-12T15:08:28.681Z,43.70
2018-08-12T15:11:33.170Z,42.29
2018-08-12T15:14:38.166Z,44.35
2018-08-12T15:17:43.554Z,43.84
2018-08-12T15:20:48.441Z,43.45
2018-08-12T15:23:52.775Z,43.43
2018-08-12T15:26:57.195Z,43.39
2018-08-12T15:30:01.756Z,43.89
2018-08-12T15:33:06.409Z,43.83
2018-08-12T15:36:12.593Z,42.93
2018-08-12T15:39:17.101Z,42.95
2018-08-12T15:42:22.033Z,43.14
2018-08-12T15:45:26.395Z,42.27
2018-08-12T15:48:31.352Z,42.50
2018-08-12T15:51:35.724Z,42.94
2018-08-12T15:54:41.442Z,43.84
2018-08-12T15:57:45.861Z,43.23
2018-08-12T16:00:50.366Z,44.82
2018-08-12T16:03:55.185Z,46.26
2018-08-12T16:06:59.501Z,44.68
2018-08-12T16:10:03.851Z,44.29
2018-08-12T16:13:08.926Z,46.48
2018-08-12T16:16:14.705Z,45.39
2018-08-12T16:19:19.741Z,45.59
2018-08-12T16:22:24.414Z,46.22
2018-08-12T16:25:29.469Z,46.26
2018-08-12T16:28:34.145Z,45.01
2018-08-12T16:31:39.449Z,44.76
2018-08-12T16:34:43.799Z,45.31
2018-08-12T16:37:48.825Z,45.29
2018-08-12T16:40:53.260Z,46.03
2018-08-12T16:43:57.881Z,44.96
2018-08-12T16:47:02.789Z,45.34
2018-08-12T16:50:08.685Z,45.05
2018-08-12T16:53:13.173Z,46.20
2018-08-12T16:56:17.985Z,46.56
2018-08-12T16:59:22.394Z,45.92
2018-08-12T17:02:26.963Z,43.19
2018-08-12T17:05:31.633Z,38.97
2018-08-12T17:08:38.512Z,39.20
2018-08-12T17:11:42.899Z,38.56
2018-08-12T17:14:48.221Z,41.32
2018-08-12T17:17:53.749Z,43.04
2018-08-12T17:20:58.148Z,44.92
2018-08-12T17:24:02.447Z,46.05
2018-08-12T17:27:07.358Z,46.58
2018-08-12T17:30:14.698Z,47.47
2018-08-12T17:33:19.048Z,47.80
2018-08-12T17:36:23.525Z,48.85
2018-08-12T17:39:27.976Z,48.45
2018-08-12T17:42:32.345Z,49.06
2018-08-12T17:45:37.469Z,48.54
2018-08-12T17:48:42.112Z,50.49
2018-08-12T17:51:46.681Z,50.24
2018-08-12T17:54:51.348Z,50.21
2018-08-12T17:57:56.167Z,50.14
2018-08-12T18:01:01.830Z,49.84
2018-08-12T18:04:06.606Z,50.87
2018-08-12T18:07:11.257Z,51.25
2018-08-12T18:10:16.045Z,51.93
2018-08-12T18:13:20.701Z,52.32
2018-08-12T18:16:25.037Z,52.34
2018-08-12T18:19:29.736Z,52.97
2018-08-12T18:22:34.853Z,52.86
2018-08-12T18:25:40.387Z,52.99
2018-08-12T18:28:46.067Z,53.67
2018-08-12T18:31:51.716Z,53.30
2018-08-12T18:34:56.273Z,53.73
2018-08-12T18:38:01.248Z,53.58
2018-08-12T18:41:05.663Z,54.15
2018-08-12T18:44:10.801Z,54.23
2018-08-12T18:47:15.085Z,54.55
2018-08-12T18:50:19.454Z,54.94
2018-08-12T18:53:23.865Z,55.76
2018-08-12T18:56:28.158Z,55.99
2018-08-12T18:59:32.902Z,57.16
2018-08-12T19:02:37.224Z,57.72
2018-08-12T19:05:41.580Z,58.48
2018-08-12T19:08:46.042Z,59.39
2018-08-12T19:11:50.757Z,59.69
2018-08-12T19:14:55.177Z,60.95
2018-08-12T19:17:59.548Z,61.35
2018-08-12T19:21:03.946Z,62.06
2018-08-12T19:24:08.434Z,61.41
2018-08-12T19:27:13.032Z,62.71
2018-08-12T19:30:17.561Z,63.34
2018-08-12T19:33:22.565Z,63.50
2018-08-12T19:36:27.347Z,64.85
2018-08-12T19:39:31.859Z,65.17
2018-08-12T19:42:36.325Z,64.92
2018-08-12T19:45:40.637Z,64.40
2018-08-12T19:48:45.193Z,64.51
2018-08-12T19:51:49.597Z,64.91
2018-08-12T19:54:54.529Z,64.85
2018-08-12T19:57:59.001Z,64.76
2018-08-12T20:01:03.822Z,65.34
2018-08-12T20:04:08.201Z,66.54
2018-08-12T20:07:12.606Z,66.93
2018-08-12T20:10:16.990Z,68.17
2018-08-12T20:13:22.099Z,67.66
2018-08-12T20:16:26.705Z,68.59
2018-08-12T20:19:32.047Z,67.82
2018-08-12T20:22:37.114Z,67.62
2018-08-12T20:25:41.572Z,68.08
2018-08-12T20:28:45.977Z,68.62
2018-08-12T20:31:50.878Z,68.49
2018-08-12T20:34:55.519Z,70.38
2018-08-12T20:38:00.118Z,69.49
2018-08-12T20:41:04.577Z,70.58
2018-08-12T20:44:08.981Z,71.06
2018-08-12T20:47:13.693Z,71.74
2018-08-12T20:50:18.089Z,72.49
2018-08-12T20:53:22.594Z,73.46
2018-08-12T20:56:27.420Z,73.09
2018-08-12T20:59:31.878Z,73.07
2018-08-12T21:02:36.157Z,73.47
2018-08-12T21:05:40.512Z,74.09
2018-08-12T21:08:45.196Z,73.70
2018-08-12T21:11:50.039Z,74.64
2018-08-12T21:14:54.802Z,74.76
2018-08-12T21:18:01.036Z,75.52
2018-08-12T21:21:05.648Z,75.48
2018-08-12T21:24:10.055Z,76.19
2018-08-12T21:27:14.420Z,77.16
2018-08-12T21:30:18.794Z,77.63
2018-08-12T21:33:23.828Z,77.96
2018-08-12T21:36:28.334Z,78.27
2018-08-12T21:39:32.930Z,78.06
2018-08-12T21:42:37.453Z,78.52
2018-08-12T21:45:41.750Z,79.24
2018-08-12T21:48:46.594Z,79.81
2018-08-12T21:51:51.217Z,80.26
2018-08-12T21:54:56.108Z,80.33
2018-08-12T21:58:01.051Z,80.59
2018-08-12T22:01:05.658Z,80.94
2018-08-12T22:04:10.085Z,80.95
2018-08-12T22:07:14.422Z,80.92
2018-08-12T22:10:18.756Z,81.74
2018-08-12T22:13:23.418Z,82.17
2018-08-12T22:16:27.909Z,82.04
2018-08-12T22:19:32.263Z,82.35
2018-08-12T22:22:36.990Z,82.32
2018-08-12T22:25:41.315Z,82.78
2018-08-12T22:28:45.653Z,82.81
2018-08-12T22:31:49.975Z,83.19
2018-08-12T22:34:54.938Z,83.24
2018-08-12T22:37:59.273Z,82.77
2018-08-12T22:41:03.630Z,82.76
2018-08-12T22:44:07.917Z,82.97
2018-08-12T22:47:12.682Z,82.85
2018-08-12T22:50:17.045Z,83.20
2018-08-12T22:53:21.327Z,82.58
2018-08-12T22:56:25.705Z,82.23
2018-08-12T22:59:30.306Z,82.57
2018-08-12T23:02:34.680Z,82.53
2018-08-12T23:05:39.412Z,82.22
2018-08-12T23:08:43.954Z,82.08
2018-08-12T23:11:48.339Z,82.29
2018-08-12T23:14:52.810Z,81.92
2018-08-12T23:17:57.125Z,81.72
2018-08-12T23:21:01.673Z,81.15
2018-08-12T23:24:07.202Z,81.59
2018-08-12T23:27:11.830Z,81.73
2018-08-12T23:30:16.410Z,81.21
2018-08-12T23:33:20.814Z,80.37
2018-08-12T23:36:25.233Z,79.68
2018-08-12T23:39:29.695Z,80.69
2018-08-12T23:42:34.364Z,79.96
2018-08-12T23:45:38.713Z,80.48
2018-08-12T23:48:43.228Z,79.96
2018-08-12T23:51:48.328Z,81.15
2018-08-12T23:54:53.010Z,81.40
2018-08-12T23:57:57.345Z,81.13
